sensor_id;sensor_type;location;lat;lon;timestamp;P1;durP1;ratioP1;P2;durP2;ratioP2
60488;SDS011;46331;49.252;8.904;2022-12-28T00:00:08;18.25;;;6.70;;
60488;SDS011;46331;49.252;8.904;2022-12-28T00:00:52;19.65;;;6.65;;
60488;SDS011;46331;49.252;8.904;2022-12-28T00:01:33;15.45;;;6.07;;
60488;SDS011;46331;49.252;8.904;2022-12-28T00:02:14;17.70;;;6.22;;
60488;SDS011;46331;49.252;8.904;2022-12-28T00:02:57;16.20;;;6.25;;
60488;SDS011;46331;49.252;8.904;2022-12-28T00:03:38;14.18;;;5.88;;
60488;SDS011;46331;49.252;8.904;2022-12-28T00:04:18;13.25;;;5.35;;
60488;SDS011;46331;49.252;8.904;2022-12-28T00:04:59;16.10;;;5.10;;
60488;SDS011;46331;49.252;8.904;2022-12-28T00:05:39;17.60;;;6.07;;
60488;SDS011;46331;49.252;8.904;2022-12-28T00:06:22;14.48;;;4.78;;
60488;SDS011;46331;49.252;8.904;2022-12-28T00:07:03;12.90;;;4.68;;
60488;SDS011;46331;49.252;8.904;2022-12-28T00:07:44;16.83;;;5.27;;
60488;SDS011;46331;49.252;8.904;2022-12-28T00:08:24;14.38;;;4.65;;
60488;SDS011;46331;49.252;8.904;2022-12-28T00:09:05;14.63;;;4.67;;
60488;SDS011;46331;49.252;8.904;2022-12-28T00:09:46;14.20;;;4.35;;
60488;SDS011;46331;49.252;8.904;2022-12-28T00:10:26;9.02;;;3.78;;
60488;SDS011;46331;49.252;8.904;2022-12-28T00:11:09;11.10;;;4.13;;
60488;SDS011;46331;49.252;8.904;2022-12-28T00:11:51;11.38;;;4.00;;
60488;SDS011;46331;49.252;8.904;2022-12-28T00:12:32;13.63;;;4.35;;
60488;SDS011;46331;49.252;8.904;2022-12-28T00:13:12;9.63;;;4.00;;
60488;SDS011;46331;49.252;8.904;2022-12-28T00:13:53;11.20;;;4.10;;
60488;SDS011;46331;49.252;8.904;2022-12-28T00:14:34;12.43;;;4.00;;
60488;SDS011;46331;49.252;8.904;2022-12-28T00:15:15;8.57;;;3.45;;
60488;SDS011;46331;49.252;8.904;2022-12-28T00:15:56;8.93;;;3.70;;
60488;SDS011;46331;49.252;8.904;2022-12-28T00:16:38;10.57;;;3.90;;
60488;SDS011;46331;49.252;8.904;2022-12-28T00:17:19;9.65;;;3.85;;
60488;SDS011;46331;49.252;8.904;2022-12-28T00:18:00;8.50;;;3.42;;
60488;SDS011;46331;49.252;8.904;2022-12-28T00:18:40;7.77;;;3.80;;
60488;SDS011;46331;49.252;8.904;2022-12-28T00:19:21;8.40;;;3.13;;
60488;SDS011;46331;49.252;8.904;2022-12-28T00:20:02;9.27;;;3.05;;
60488;SDS011;46331;49.252;8.904;2022-12-28T00:20:42;11.25;;;4.22;;
60488;SDS011;46331;49.252;8.904;2022-12-28T00:21:23;8.07;;;2.90;;
60488;SDS011;46331;49.252;8.904;2022-12-28T00:22:04;9.40;;;3.92;;
60488;SDS011;46331;49.252;8.904;2022-12-28T00:22:45;10.17;;;3.60;;
60488;SDS011;46331;49.252;8.904;2022-12-28T00:23:26;12.57;;;4.18;;
60488;SDS011;46331;49.252;8.904;2022-12-28T00:24:07;65.28;;;5.60;;
60488;SDS011;46331;49.252;8.904;2022-12-28T00:24:53;10.65;;;4.07;;
60488;SDS011;46331;49.252;8.904;2022-12-28T00:25:35;11.07;;;4.20;;
60488;SDS011;46331;49.252;8.904;2022-12-28T00:26:15;13.27;;;4.03;;
60488;SDS011;46331;49.252;8.904;2022-12-28T00:26:56;10.05;;;4.03;;
60488;SDS011;46331;49.252;8.904;2022-12-28T00:27:37;9.85;;;4.20;;
60488;SDS011;46331;49.252;8.904;2022-12-28T00:28:18;8.65;;;3.78;;
60488;SDS011;46331;49.252;8.904;2022-12-28T00:28:59;9.77;;;4.33;;
60488;SDS011;46331;49.252;8.904;2022-12-28T00:29:40;11.50;;;4.78;;
60488;SDS011;46331;49.252;8.904;2022-12-28T00:30:21;11.95;;;4.60;;
60488;SDS011;46331;49.252;8.904;2022-12-28T00:31:01;9.57;;;4.53;;
60488;SDS011;46331;49.252;8.904;2022-12-28T00:31:42;13.95;;;4.47;;
60488;SDS011;46331;49.252;8.904;2022-12-28T00:32:24;11.35;;;4.80;;
60488;SDS011;46331;49.252;8.904;2022-12-28T00:33:07;12.25;;;5.20;;
60488;SDS011;46331;49.252;8.904;2022-12-28T00:33:48;12.52;;;4.78;;
60488;SDS011;46331;49.252;8.904;2022-12-28T00:34:29;11.02;;;4.70;;
60488;SDS011;46331;49.252;8.904;2022-12-28T00:35:09;12.97;;;4.90;;
60488;SDS011;46331;49.252;8.904;2022-12-28T00:35:53;12.75;;;4.68;;
60488;SDS011;46331;49.252;8.904;2022-12-28T00:36:35;10.73;;;4.30;;
60488;SDS011;46331;49.252;8.904;2022-12-28T00:37:16;10.23;;;4.68;;
60488;SDS011;46331;49.252;8.904;2022-12-28T00:37:56;9.80;;;4.07;;
60488;SDS011;46331;49.252;8.904;2022-12-28T00:38:37;9.65;;;4.00;;
60488;SDS011;46331;49.252;8.904;2022-12-28T00:39:19;11.80;;;4.20;;
60488;SDS011;46331;49.252;8.904;2022-12-28T00:40:00;9.18;;;3.40;;
60488;SDS011;46331;49.252;8.904;2022-12-28T00:40:41;15.10;;;4.37;;
60488;SDS011;46331;49.252;8.904;2022-12-28T00:41:22;7.93;;;3.83;;
60488;SDS011;46331;49.252;8.904;2022-12-28T00:42:02;9.57;;;3.80;;
60488;SDS011;46331;49.252;8.904;2022-12-28T00:42:43;10.60;;;3.85;;
60488;SDS011;46331;49.252;8.904;2022-12-28T00:43:24;8.57;;;3.55;;
60488;SDS011;46331;49.252;8.904;2022-12-28T00:44:05;11.20;;;3.77;;
60488;SDS011;46331;49.252;8.904;2022-12-28T00:44:45;9.65;;;3.67;;
60488;SDS011;46331;49.252;8.904;2022-12-28T00:45:29;8.98;;;4.07;;
60488;SDS011;46331;49.252;8.904;2022-12-28T00:46:10;10.53;;;4.07;;
60488;SDS011;46331;49.252;8.904;2022-12-28T00:46:51;9.43;;;3.97;;
60488;SDS011;46331;49.252;8.904;2022-12-28T00:47:31;9.45;;;3.72;;
60488;SDS011;46331;49.252;8.904;2022-12-28T00:48:12;11.17;;;3.83;;
60488;SDS011;46331;49.252;8.904;2022-12-28T00:48:54;8.60;;;4.07;;
60488;SDS011;46331;49.252;8.904;2022-12-28T00:49:35;12.07;;;4.53;;
60488;SDS011;46331;49.252;8.904;2022-12-28T00:50:15;9.55;;;3.85;;
60488;SDS011;46331;49.252;8.904;2022-12-28T00:51:00;10.40;;;4.07;;
60488;SDS011;46331;49.252;8.904;2022-12-28T00:51:45;9.27;;;4.30;;
60488;SDS011;46331;49.252;8.904;2022-12-28T00:52:25;12.32;;;4.90;;
60488;SDS011;46331;49.252;8.904;2022-12-28T00:53:06;13.80;;;4.70;;
60488;SDS011;46331;49.252;8.904;2022-12-28T00:53:47;10.25;;;4.15;;
60488;SDS011;46331;49.252;8.904;2022-12-28T00:54:27;12.33;;;4.93;;
60488;SDS011;46331;49.252;8.904;2022-12-28T00:55:08;8.98;;;4.18;;
60488;SDS011;46331;49.252;8.904;2022-12-28T00:55:49;12.03;;;4.70;;
60488;SDS011;46331;49.252;8.904;2022-12-28T00:56:29;11.68;;;5.22;;
60488;SDS011;46331;49.252;8.904;2022-12-28T00:57:10;9.97;;;4.47;;
60488;SDS011;46331;49.252;8.904;2022-12-28T00:57:50;15.87;;;4.77;;
60488;SDS011;46331;49.252;8.904;2022-12-28T00:58:31;11.25;;;4.90;;
60488;SDS011;46331;49.252;8.904;2022-12-28T00:59:12;11.13;;;4.25;;
60488;SDS011;46331;49.252;8.904;2022-12-28T00:59:55;11.02;;;4.25;;
60488;SDS011;46331;49.252;8.904;2022-12-28T01:00:36;9.70;;;4.40;;
60488;SDS011;46331;49.252;8.904;2022-12-28T01:01:19;12.43;;;5.00;;
60488;SDS011;46331;49.252;8.904;2022-12-28T01:02:01;12.25;;;4.65;;
60488;SDS011;46331;49.252;8.904;2022-12-28T01:02:41;12.10;;;5.03;;
60488;SDS011;46331;49.252;8.904;2022-12-28T01:03:22;13.05;;;4.57;;
60488;SDS011;46331;49.252;8.904;2022-12-28T01:04:04;10.57;;;4.63;;
60488;SDS011;46331;49.252;8.904;2022-12-28T01:04:45;11.90;;;4.37;;
60488;SDS011;46331;49.252;8.904;2022-12-28T01:05:28;10.77;;;4.43;;
60488;SDS011;46331;49.252;8.904;2022-12-28T01:06:10;12.50;;;4.47;;
60488;SDS011;46331;49.252;8.904;2022-12-28T01:06:52;10.23;;;4.50;;
60488;SDS011;46331;49.252;8.904;2022-12-28T01:07:32;10.38;;;4.55;;
60488;SDS011;46331;49.252;8.904;2022-12-28T01:08:13;9.53;;;4.10;;
60488;SDS011;46331;49.252;8.904;2022-12-28T01:08:53;11.77;;;4.57;;
60488;SDS011;46331;49.252;8.904;2022-12-28T01:09:34;8.63;;;4.30;;
60488;SDS011;46331;49.252;8.904;2022-12-28T01:10:17;11.55;;;5.00;;
60488;SDS011;46331;49.252;8.904;2022-12-28T01:10:58;12.77;;;4.20;;
60488;SDS011;46331;49.252;8.904;2022-12-28T01:11:38;10.60;;;4.20;;
60488;SDS011;46331;49.252;8.904;2022-12-28T01:12:19;26.77;;;16.40;;
60488;SDS011;46331;49.252;8.904;2022-12-28T01:12:59;29.48;;;18.90;;
60488;SDS011;46331;49.252;8.904;2022-12-28T01:13:40;23.47;;;14.23;;
60488;SDS011;46331;49.252;8.904;2022-12-28T01:14:21;18.77;;;11.50;;
60488;SDS011;46331;49.252;8.904;2022-12-28T01:15:05;15.10;;;8.70;;
60488;SDS011;46331;49.252;8.904;2022-12-28T01:15:47;15.30;;;6.93;;
60488;SDS011;46331;49.252;8.904;2022-12-28T01:16:31;13.25;;;6.30;;
60488;SDS011;46331;49.252;8.904;2022-12-28T01:17:13;12.32;;;6.60;;
60488;SDS011;46331;49.252;8.904;2022-12-28T01:17:54;12.87;;;6.03;;
60488;SDS011;46331;49.252;8.904;2022-12-28T01:18:34;11.23;;;4.97;;
60488;SDS011;46331;49.252;8.904;2022-12-28T01:19:17;10.40;;;5.13;;
60488;SDS011;46331;49.252;8.904;2022-12-28T01:20:00;11.75;;;4.50;;
60488;SDS011;46331;49.252;8.904;2022-12-28T01:20:40;8.63;;;4.50;;
60488;SDS011;46331;49.252;8.904;2022-12-28T01:21:23;10.82;;;4.00;;
60488;SDS011;46331;49.252;8.904;2022-12-28T01:22:05;11.82;;;4.93;;
60488;SDS011;46331;49.252;8.904;2022-12-28T01:22:45;11.65;;;4.00;;
60488;SDS011;46331;49.252;8.904;2022-12-28T01:23:27;11.43;;;4.45;;
60488;SDS011;46331;49.252;8.904;2022-12-28T01:24:08;13.38;;;4.75;;
60488;SDS011;46331;49.252;8.904;2022-12-28T01:24:49;9.70;;;3.97;;
60488;SDS011;46331;49.252;8.904;2022-12-28T01:25:31;13.03;;;4.60;;
60488;SDS011;46331;49.252;8.904;2022-12-28T01:26:12;10.85;;;4.15;;
60488;SDS011;46331;49.252;8.904;2022-12-28T01:26:53;9.65;;;4.35;;
60488;SDS011;46331;49.252;8.904;2022-12-28T01:27:34;12.15;;;4.45;;
60488;SDS011;46331;49.252;8.904;2022-12-28T01:28:15;7.97;;;3.92;;
60488;SDS011;46331;49.252;8.904;2022-12-28T01:28:56;9.85;;;4.22;;
60488;SDS011;46331;49.252;8.904;2022-12-28T01:29:38;10.10;;;4.10;;
60488;SDS011;46331;49.252;8.904;2022-12-28T01:30:18;10.23;;;4.27;;
60488;SDS011;46331;49.252;8.904;2022-12-28T01:31:03;12.43;;;4.30;;
60488;SDS011;46331;49.252;8.904;2022-12-28T01:31:45;9.85;;;3.92;;
60488;SDS011;46331;49.252;8.904;2022-12-28T01:32:26;12.10;;;4.37;;
60488;SDS011;46331;49.252;8.904;2022-12-28T01:33:06;11.52;;;4.10;;
60488;SDS011;46331;49.252;8.904;2022-12-28T01:33:48;8.18;;;4.10;;
60488;SDS011;46331;49.252;8.904;2022-12-28T01:34:29;9.73;;;3.60;;
60488;SDS011;46331;49.252;8.904;2022-12-28T01:35:09;9.70;;;3.80;;
60488;SDS011;46331;49.252;8.904;2022-12-28T01:35:50;10.37;;;3.70;;
60488;SDS011;46331;49.252;8.904;2022-12-28T01:36:31;10.50;;;4.40;;
60488;SDS011;46331;49.252;8.904;2022-12-28T01:37:14;9.80;;;4.20;;
60488;SDS011;46331;49.252;8.904;2022-12-28T01:37:55;8.73;;;4.20;;
60488;SDS011;46331;49.252;8.904;2022-12-28T01:38:36;9.57;;;4.03;;
60488;SDS011;46331;49.252;8.904;2022-12-28T01:39:17;13.80;;;4.78;;
60488;SDS011;46331;49.252;8.904;2022-12-28T01:39:57;11.30;;;3.73;;
60488;SDS011;46331;49.252;8.904;2022-12-28T01:40:42;10.85;;;4.32;;
60488;SDS011;46331;49.252;8.904;2022-12-28T01:41:23;8.88;;;4.18;;
60488;SDS011;46331;49.252;8.904;2022-12-28T01:42:09;9.73;;;3.78;;
60488;SDS011;46331;49.252;8.904;2022-12-28T01:42:55;10.40;;;3.67;;
60488;SDS011;46331;49.252;8.904;2022-12-28T01:45:14;8.73;;;3.65;;
60488;SDS011;46331;49.252;8.904;2022-12-28T01:46:01;10.45;;;3.55;;
60488;SDS011;46331;49.252;8.904;2022-12-28T01:46:43;10.63;;;3.55;;
60488;SDS011;46331;49.252;8.904;2022-12-28T01:47:27;10.23;;;3.50;;
60488;SDS011;46331;49.252;8.904;2022-12-28T01:48:15;8.90;;;3.88;;
60488;SDS011;46331;49.252;8.904;2022-12-28T01:49:02;9.50;;;3.83;;
60488;SDS011;46331;49.252;8.904;2022-12-28T01:49:58;9.13;;;3.80;;
60488;SDS011;46331;49.252;8.904;2022-12-28T01:50:42;8.50;;;3.55;;
60488;SDS011;46331;49.252;8.904;2022-12-28T01:51:23;8.27;;;3.22;;
60488;SDS011;46331;49.252;8.904;2022-12-28T01:52:59;10.82;;;4.05;;
60488;SDS011;46331;49.252;8.904;2022-12-28T01:53:43;11.77;;;3.60;;
60488;SDS011;46331;49.252;8.904;2022-12-28T01:54:28;9.55;;;3.50;;
60488;SDS011;46331;49.252;8.904;2022-12-28T01:55:13;11.23;;;3.75;;
60488;SDS011;46331;49.252;8.904;2022-12-28T01:55:57;18.85;;;4.20;;
60488;SDS011;46331;49.252;8.904;2022-12-28T01:56:38;10.23;;;4.15;;
60488;SDS011;46331;49.252;8.904;2022-12-28T01:57:20;9.73;;;4.22;;
60488;SDS011;46331;49.252;8.904;2022-12-28T01:58:53;10.15;;;3.85;;
60488;SDS011;46331;49.252;8.904;2022-12-28T01:59:37;9.93;;;4.38;;
60488;SDS011;46331;49.252;8.904;2022-12-28T02:00:21;12.38;;;4.00;;
60488;SDS011;46331;49.252;8.904;2022-12-28T02:01:01;9.55;;;4.47;;
60488;SDS011;46331;49.252;8.904;2022-12-28T02:01:42;8.40;;;4.10;;
60488;SDS011;46331;49.252;8.904;2022-12-28T02:02:23;11.67;;;4.67;;
60488;SDS011;46331;49.252;8.904;2022-12-28T02:03:18;10.10;;;4.43;;
60488;SDS011;46331;49.252;8.904;2022-12-28T02:04:01;10.60;;;4.07;;
60488;SDS011;46331;49.252;8.904;2022-12-28T02:04:43;10.75;;;4.55;;
60488;SDS011;46331;49.252;8.904;2022-12-28T02:05:27;10.57;;;4.28;;
60488;SDS011;46331;49.252;8.904;2022-12-28T02:06:10;12.30;;;5.00;;
60488;SDS011;46331;49.252;8.904;2022-12-28T02:06:53;10.93;;;4.38;;
60488;SDS011;46331;49.252;8.904;2022-12-28T02:07:46;9.65;;;4.20;;
60488;SDS011;46331;49.252;8.904;2022-12-28T02:09:42;13.32;;;4.30;;
60488;SDS011;46331;49.252;8.904;2022-12-28T02:10:23;9.27;;;4.07;;
60488;SDS011;46331;49.252;8.904;2022-12-28T02:11:06;10.35;;;4.30;;
60488;SDS011;46331;49.252;8.904;2022-12-28T02:11:50;11.35;;;4.22;;
60488;SDS011;46331;49.252;8.904;2022-12-28T02:12:33;10.38;;;4.38;;
60488;SDS011;46331;49.252;8.904;2022-12-28T02:13:15;10.32;;;4.10;;
60488;SDS011;46331;49.252;8.904;2022-12-28T02:13:57;11.05;;;4.40;;
60488;SDS011;46331;49.252;8.904;2022-12-28T02:14:40;10.77;;;4.45;;
60488;SDS011;46331;49.252;8.904;2022-12-28T02:15:22;9.20;;;3.63;;
60488;SDS011;46331;49.252;8.904;2022-12-28T02:16:04;10.95;;;4.30;;
60488;SDS011;46331;49.252;8.904;2022-12-28T02:16:45;9.35;;;3.90;;
60488;SDS011;46331;49.252;8.904;2022-12-28T02:17:26;10.52;;;4.72;;
60488;SDS011;46331;49.252;8.904;2022-12-28T02:18:06;10.65;;;3.67;;
60488;SDS011;46331;49.252;8.904;2022-12-28T02:18:48;9.77;;;3.95;;
60488;SDS011;46331;49.252;8.904;2022-12-28T02:19:36;9.43;;;4.03;;
60488;SDS011;46331;49.252;8.904;2022-12-28T02:20:25;11.40;;;4.03;;
60488;SDS011;46331;49.252;8.904;2022-12-28T02:30:33;10.30;;;4.10;;
60488;SDS011;46331;49.252;8.904;2022-12-28T02:31:20;9.63;;;3.80;;
60488;SDS011;46331;49.252;8.904;2022-12-28T02:33:24;9.88;;;4.35;;
60488;SDS011;46331;49.252;8.904;2022-12-28T02:34:15;11.85;;;4.80;;
60488;SDS011;46331;49.252;8.904;2022-12-28T02:36:18;9.77;;;3.88;;
60488;SDS011;46331;49.252;8.904;2022-12-28T02:37:09;8.63;;;4.15;;
60488;SDS011;46331;49.252;8.904;2022-12-28T02:38:14;9.82;;;4.05;;
60488;SDS011;46331;49.252;8.904;2022-12-28T02:39:03;9.55;;;4.10;;
60488;SDS011;46331;49.252;8.904;2022-12-28T02:39:52;10.45;;;4.25;;
60488;SDS011;46331;49.252;8.904;2022-12-28T02:41:21;10.90;;;3.90;;
60488;SDS011;46331;49.252;8.904;2022-12-28T02:41:49;12.70;;;3.90;;
60488;SDS011;46331;49.252;8.904;2022-12-28T02:42:31;12.43;;;4.43;;
60488;SDS011;46331;49.252;8.904;2022-12-28T02:43:15;10.90;;;4.72;;
60488;SDS011;46331;49.252;8.904;2022-12-28T02:43:57;10.00;;;4.35;;
60488;SDS011;46331;49.252;8.904;2022-12-28T02:44:38;14.63;;;4.05;;
60488;SDS011;46331;49.252;8.904;2022-12-28T02:45:44;9.77;;;3.83;;
60488;SDS011;46331;49.252;8.904;2022-12-28T02:46:44;9.95;;;3.70;;
60488;SDS011;46331;49.252;8.904;2022-12-28T02:47:45;10.93;;;3.83;;
60488;SDS011;46331;49.252;8.904;2022-12-28T02:48:46;8.52;;;3.60;;
60488;SDS011;46331;49.252;8.904;2022-12-28T02:49:46;10.65;;;3.72;;
60488;SDS011;46331;49.252;8.904;2022-12-28T02:50:48;9.63;;;4.10;;
60488;SDS011;46331;49.252;8.904;2022-12-28T02:55:19;9.52;;;3.65;;
60488;SDS011;46331;49.252;8.904;2022-12-28T03:00:06;11.77;;;4.18;;
60488;SDS011;46331;49.252;8.904;2022-12-28T03:02:56;8.52;;;4.10;;
60488;SDS011;46331;49.252;8.904;2022-12-28T03:07:25;9.77;;;3.72;;
60488;SDS011;46331;49.252;8.904;2022-12-28T03:08:35;9.63;;;3.75;;
60488;SDS011;46331;49.252;8.904;2022-12-28T03:09:30;9.57;;;3.58;;
60488;SDS011;46331;49.252;8.904;2022-12-28T03:10:19;10.88;;;3.88;;
60488;SDS011;46331;49.252;8.904;2022-12-28T03:12:13;8.73;;;3.90;;
60488;SDS011;46331;49.252;8.904;2022-12-28T03:13:07;9.35;;;3.58;;
60488;SDS011;46331;49.252;8.904;2022-12-28T03:14:21;9.07;;;4.18;;
60488;SDS011;46331;49.252;8.904;2022-12-28T03:15:07;10.82;;;3.90;;
60488;SDS011;46331;49.252;8.904;2022-12-28T03:15:54;9.32;;;3.53;;
60488;SDS011;46331;49.252;8.904;2022-12-28T03:16:43;8.90;;;4.32;;
60488;SDS011;46331;49.252;8.904;2022-12-28T03:17:45;10.40;;;4.38;;
60488;SDS011;46331;49.252;8.904;2022-12-28T03:18:46;8.80;;;4.22;;
60488;SDS011;46331;49.252;8.904;2022-12-28T03:19:53;9.95;;;3.65;;
60488;SDS011;46331;49.252;8.904;2022-12-28T03:20:58;9.15;;;4.00;;
60488;SDS011;46331;49.252;8.904;2022-12-28T03:22:01;10.90;;;3.95;;
60488;SDS011;46331;49.252;8.904;2022-12-28T03:23:00;8.48;;;3.70;;
60488;SDS011;46331;49.252;8.904;2022-12-28T03:24:03;8.90;;;3.50;;
60488;SDS011;46331;49.252;8.904;2022-12-28T03:25:07;9.98;;;3.72;;
60488;SDS011;46331;49.252;8.904;2022-12-28T03:26:11;8.93;;;3.88;;
60488;SDS011;46331;49.252;8.904;2022-12-28T03:27:13;8.25;;;3.58;;
60488;SDS011;46331;49.252;8.904;2022-12-28T03:28:17;6.68;;;3.17;;
60488;SDS011;46331;49.252;8.904;2022-12-28T03:29:20;6.80;;;2.85;;
60488;SDS011;46331;49.252;8.904;2022-12-28T03:30:22;13.95;;;3.88;;
60488;SDS011;46331;49.252;8.904;2022-12-28T03:31:27;7.13;;;3.30;;
60488;SDS011;46331;49.252;8.904;2022-12-28T03:32:14;6.53;;;3.08;;
60488;SDS011;46331;49.252;8.904;2022-12-28T03:32:55;8.70;;;2.80;;
60488;SDS011;46331;49.252;8.904;2022-12-28T03:33:39;8.40;;;3.35;;
60488;SDS011;46331;49.252;8.904;2022-12-28T03:34:23;9.50;;;3.30;;
60488;SDS011;46331;49.252;8.904;2022-12-28T03:35:04;9.10;;;2.92;;
60488;SDS011;46331;49.252;8.904;2022-12-28T03:35:54;8.73;;;3.47;;
60488;SDS011;46331;49.252;8.904;2022-12-28T03:37:24;9.82;;;3.90;;
60488;SDS011;46331;49.252;8.904;2022-12-28T03:38:10;8.77;;;3.65;;
60488;SDS011;46331;49.252;8.904;2022-12-28T03:40:09;8.30;;;3.38;;
60488;SDS011;46331;49.252;8.904;2022-12-28T03:41:06;10.27;;;3.70;;
60488;SDS011;46331;49.252;8.904;2022-12-28T03:41:54;9.75;;;3.58;;
60488;SDS011;46331;49.252;8.904;2022-12-28T03:43:00;9.13;;;3.78;;
60488;SDS011;46331;49.252;8.904;2022-12-28T03:44:08;9.13;;;3.58;;
60488;SDS011;46331;49.252;8.904;2022-12-28T03:44:54;7.68;;;3.15;;
60488;SDS011;46331;49.252;8.904;2022-12-28T03:46:03;7.93;;;3.90;;
60488;SDS011;46331;49.252;8.904;2022-12-28T03:47:11;10.07;;;3.50;;
60488;SDS011;46331;49.252;8.904;2022-12-28T03:47:54;10.93;;;3.47;;
60488;SDS011;46331;49.252;8.904;2022-12-28T03:48:36;11.13;;;3.85;;
60488;SDS011;46331;49.252;8.904;2022-12-28T03:49:18;9.18;;;3.40;;
60488;SDS011;46331;49.252;8.904;2022-12-28T03:49:59;10.48;;;3.60;;
60488;SDS011;46331;49.252;8.904;2022-12-28T03:50:41;7.78;;;3.20;;
60488;SDS011;46331;49.252;8.904;2022-12-28T03:51:27;8.43;;;3.33;;
60488;SDS011;46331;49.252;8.904;2022-12-28T03:52:15;11.57;;;3.28;;
60488;SDS011;46331;49.252;8.904;2022-12-28T03:52:59;10.60;;;3.67;;
60488;SDS011;46331;49.252;8.904;2022-12-28T03:53:41;8.82;;;3.80;;
60488;SDS011;46331;49.252;8.904;2022-12-28T03:54:26;7.93;;;3.50;;
60488;SDS011;46331;49.252;8.904;2022-12-28T03:55:07;9.00;;;3.50;;
60488;SDS011;46331;49.252;8.904;2022-12-28T03:56:49;9.23;;;3.60;;
60488;SDS011;46331;49.252;8.904;2022-12-28T03:57:33;8.82;;;3.63;;
60488;SDS011;46331;49.252;8.904;2022-12-28T03:58:15;8.55;;;3.80;;
60488;SDS011;46331;49.252;8.904;2022-12-28T03:58:55;10.63;;;4.25;;
60488;SDS011;46331;49.252;8.904;2022-12-28T03:59:43;8.02;;;3.63;;
60488;SDS011;46331;49.252;8.904;2022-12-28T04:00:24;9.13;;;3.60;;
60488;SDS011;46331;49.252;8.904;2022-12-28T04:01:07;9.02;;;3.33;;
60488;SDS011;46331;49.252;8.904;2022-12-28T04:01:48;8.85;;;3.42;;
60488;SDS011;46331;49.252;8.904;2022-12-28T04:02:31;8.73;;;3.70;;
60488;SDS011;46331;49.252;8.904;2022-12-28T04:03:12;9.83;;;3.47;;
60488;SDS011;46331;49.252;8.904;2022-12-28T04:03:52;9.03;;;3.50;;
60488;SDS011;46331;49.252;8.904;2022-12-28T04:04:33;9.95;;;3.50;;
60488;SDS011;46331;49.252;8.904;2022-12-28T04:05:14;10.05;;;3.75;;
60488;SDS011;46331;49.252;8.904;2022-12-28T04:05:55;8.75;;;3.50;;
60488;SDS011;46331;49.252;8.904;2022-12-28T04:06:37;11.70;;;4.05;;
60488;SDS011;46331;49.252;8.904;2022-12-28T04:07:18;9.77;;;3.38;;
60488;SDS011;46331;49.252;8.904;2022-12-28T04:07:58;9.70;;;4.03;;
60488;SDS011;46331;49.252;8.904;2022-12-28T04:08:39;11.07;;;4.27;;
60488;SDS011;46331;49.252;8.904;2022-12-28T04:09:20;8.52;;;4.30;;
60488;SDS011;46331;49.252;8.904;2022-12-28T04:10:01;11.85;;;4.00;;
60488;SDS011;46331;49.252;8.904;2022-12-28T04:10:43;11.75;;;4.00;;
60488;SDS011;46331;49.252;8.904;2022-12-28T04:11:24;10.02;;;4.13;;
60488;SDS011;46331;49.252;8.904;2022-12-28T04:12:07;18.65;;;4.32;;
60488;SDS011;46331;49.252;8.904;2022-12-28T04:13:07;9.65;;;4.18;;
60488;SDS011;46331;49.252;8.904;2022-12-28T04:13:58;8.25;;;3.88;;
60488;SDS011;46331;49.252;8.904;2022-12-28T04:14:42;10.02;;;3.95;;
60488;SDS011;46331;49.252;8.904;2022-12-28T04:15:23;9.10;;;3.90;;
60488;SDS011;46331;49.252;8.904;2022-12-28T04:16:05;11.52;;;4.40;;
60488;SDS011;46331;49.252;8.904;2022-12-28T04:16:49;9.75;;;4.05;;
60488;SDS011;46331;49.252;8.904;2022-12-28T04:17:31;7.97;;;3.80;;
60488;SDS011;46331;49.252;8.904;2022-12-28T04:18:11;9.03;;;3.97;;
60488;SDS011;46331;49.252;8.904;2022-12-28T04:18:53;9.50;;;3.80;;
60488;SDS011;46331;49.252;8.904;2022-12-28T04:19:34;9.80;;;4.20;;
60488;SDS011;46331;49.252;8.904;2022-12-28T04:20:15;9.05;;;4.32;;
60488;SDS011;46331;49.252;8.904;2022-12-28T04:20:56;9.63;;;4.30;;
60488;SDS011;46331;49.252;8.904;2022-12-28T04:21:37;10.65;;;4.78;;
60488;SDS011;46331;49.252;8.904;2022-12-28T04:22:18;7.88;;;3.90;;
60488;SDS011;46331;49.252;8.904;2022-12-28T04:22:59;10.80;;;4.25;;
60488;SDS011;46331;49.252;8.904;2022-12-28T04:23:40;9.85;;;4.00;;
60488;SDS011;46331;49.252;8.904;2022-12-28T04:24:30;9.48;;;4.20;;
60488;SDS011;46331;49.252;8.904;2022-12-28T04:25:11;10.52;;;4.50;;
60488;SDS011;46331;49.252;8.904;2022-12-28T04:26:11;12.10;;;4.80;;
60488;SDS011;46331;49.252;8.904;2022-12-28T04:26:55;10.05;;;4.30;;
60488;SDS011;46331;49.252;8.904;2022-12-28T04:27:35;8.82;;;4.20;;
60488;SDS011;46331;49.252;8.904;2022-12-28T04:28:23;8.18;;;3.75;;
60488;SDS011;46331;49.252;8.904;2022-12-28T04:29:39;10.38;;;3.92;;
60488;SDS011;46331;49.252;8.904;2022-12-28T04:30:30;9.98;;;4.10;;
60488;SDS011;46331;49.252;8.904;2022-12-28T04:31:12;10.60;;;4.50;;
60488;SDS011;46331;49.252;8.904;2022-12-28T04:31:56;9.88;;;4.30;;
60488;SDS011;46331;49.252;8.904;2022-12-28T04:32:37;9.23;;;4.43;;
60488;SDS011;46331;49.252;8.904;2022-12-28T04:33:18;12.55;;;4.30;;
60488;SDS011;46331;49.252;8.904;2022-12-28T04:34:01;10.75;;;4.50;;
60488;SDS011;46331;49.252;8.904;2022-12-28T04:34:43;9.93;;;4.00;;
60488;SDS011;46331;49.252;8.904;2022-12-28T04:35:25;9.18;;;4.10;;
60488;SDS011;46331;49.252;8.904;2022-12-28T04:36:14;8.70;;;4.07;;
60488;SDS011;46331;49.252;8.904;2022-12-28T04:36:57;11.80;;;4.40;;
60488;SDS011;46331;49.252;8.904;2022-12-28T04:37:37;10.80;;;4.15;;
60488;SDS011;46331;49.252;8.904;2022-12-28T04:38:18;9.13;;;3.87;;
60488;SDS011;46331;49.252;8.904;2022-12-28T04:38:59;10.55;;;4.20;;
60488;SDS011;46331;49.252;8.904;2022-12-28T04:39:40;12.23;;;4.80;;
60488;SDS011;46331;49.252;8.904;2022-12-28T04:40:20;10.03;;;4.10;;
60488;SDS011;46331;49.252;8.904;2022-12-28T04:41:01;9.57;;;4.07;;
60488;SDS011;46331;49.252;8.904;2022-12-28T04:41:45;10.13;;;4.40;;
60488;SDS011;46331;49.252;8.904;2022-12-28T04:42:26;9.18;;;3.95;;
60488;SDS011;46331;49.252;8.904;2022-12-28T04:43:07;10.15;;;4.30;;
60488;SDS011;46331;49.252;8.904;2022-12-28T04:43:48;8.88;;;3.97;;
60488;SDS011;46331;49.252;8.904;2022-12-28T04:44:31;9.18;;;3.92;;
60488;SDS011;46331;49.252;8.904;2022-12-28T04:45:12;8.75;;;3.88;;
60488;SDS011;46331;49.252;8.904;2022-12-28T04:45:59;10.32;;;4.20;;
60488;SDS011;46331;49.252;8.904;2022-12-28T04:46:42;9.05;;;4.00;;
60488;SDS011;46331;49.252;8.904;2022-12-28T04:47:22;9.47;;;4.10;;
60488;SDS011;46331;49.252;8.904;2022-12-28T04:48:03;9.35;;;4.05;;
60488;SDS011;46331;49.252;8.904;2022-12-28T04:48:44;8.73;;;3.80;;
60488;SDS011;46331;49.252;8.904;2022-12-28T04:49:24;13.23;;;4.20;;
60488;SDS011;46331;49.252;8.904;2022-12-28T04:50:05;11.07;;;4.78;;
60488;SDS011;46331;49.252;8.904;2022-12-28T04:50:46;12.23;;;4.40;;
60488;SDS011;46331;49.252;8.904;2022-12-28T04:51:26;8.07;;;3.80;;
60488;SDS011;46331;49.252;8.904;2022-12-28T04:52:08;10.55;;;3.90;;
60488;SDS011;46331;49.252;8.904;2022-12-28T04:52:49;9.27;;;4.13;;
60488;SDS011;46331;49.252;8.904;2022-12-28T04:53:29;9.13;;;4.27;;
60488;SDS011;46331;49.252;8.904;2022-12-28T04:54:13;9.18;;;4.22;;
60488;SDS011;46331;49.252;8.904;2022-12-28T04:54:54;9.95;;;4.18;;
60488;SDS011;46331;49.252;8.904;2022-12-28T04:55:34;10.20;;;4.00;;
60488;SDS011;46331;49.252;8.904;2022-12-28T04:56:15;8.27;;;3.55;;
60488;SDS011;46331;49.252;8.904;2022-12-28T04:56:57;8.90;;;3.93;;
60488;SDS011;46331;49.252;8.904;2022-12-28T04:57:37;8.40;;;4.22;;
60488;SDS011;46331;49.252;8.904;2022-12-28T04:58:18;9.83;;;4.70;;
60488;SDS011;46331;49.252;8.904;2022-12-28T04:58:59;10.13;;;4.15;;
60488;SDS011;46331;49.252;8.904;2022-12-28T04:59:40;8.80;;;4.07;;